sensor_id;sensor_type;location;lat;lon;timestamp;P1;durP1;ratioP1;P2;durP2;ratioP2
14472;SDS011;7322;50.872;4.386;2023-08-31T00:02:28;1.65;;;1.00;;
14472;SDS011;7322;50.872;4.386;2023-08-31T00:17:37;2.03;;;1.20;;
14472;SDS011;7322;50.872;4.386;2023-08-31T00:20:06;1.73;;;1.20;;
14472;SDS011;7322;50.872;4.386;2023-08-31T00:22:47;1.80;;;1.17;;
14472;SDS011;7322;50.872;4.386;2023-08-31T00:28:11;1.23;;;1.10;;
14472;SDS011;7322;50.872;4.386;2023-08-31T00:30:40;1.98;;;1.30;;
14472;SDS011;7322;50.872;4.386;2023-08-31T00:33:13;2.87;;;1.10;;
14472;SDS011;7322;50.872;4.386;2023-08-31T00:35:40;1.90;;;1.20;;
14472;SDS011;7322;50.872;4.386;2023-08-31T00:38:10;1.50;;;1.10;;
14472;SDS011;7322;50.872;4.386;2023-08-31T00:40:48;1.92;;;1.13;;
14472;SDS011;7322;50.872;4.386;2023-08-31T00:43:17;3.15;;;1.48;;
14472;SDS011;7322;50.872;4.386;2023-08-31T00:45:45;2.05;;;1.40;;
14472;SDS011;7322;50.872;4.386;2023-08-31T00:48:16;2.70;;;1.13;;
14472;SDS011;7322;50.872;4.386;2023-08-31T00:50:44;1.37;;;1.10;;
14472;SDS011;7322;50.872;4.386;2023-08-31T00:53:12;2.35;;;1.40;;
14472;SDS011;7322;50.872;4.386;2023-08-31T00:55:48;2.37;;;1.40;;
14472;SDS011;7322;50.872;4.386;2023-08-31T00:58:18;1.93;;;1.40;;
14472;SDS011;7322;50.872;4.386;2023-08-31T01:00:49;2.55;;;1.42;;
14472;SDS011;7322;50.872;4.386;2023-08-31T01:03:31;2.13;;;1.50;;
14472;SDS011;7322;50.872;4.386;2023-08-31T01:06:17;3.63;;;1.20;;
14472;SDS011;7322;50.872;4.386;2023-08-31T01:08:56;3.22;;;1.38;;
14472;SDS011;7322;50.872;4.386;2023-08-31T01:11:31;1.77;;;1.40;;
14472;SDS011;7322;50.872;4.386;2023-08-31T01:14:15;3.13;;;1.33;;
14472;SDS011;7322;50.872;4.386;2023-08-31T01:16:45;1.47;;;1.20;;
14472;SDS011;7322;50.872;4.386;2023-08-31T01:19:24;2.47;;;1.63;;
14472;SDS011;7322;50.872;4.386;2023-08-31T01:22:14;3.43;;;1.23;;
14472;SDS011;7322;50.872;4.386;2023-08-31T01:24:56;1.70;;;1.20;;
14472;SDS011;7322;50.872;4.386;2023-08-31T01:27:24;2.17;;;1.10;;
14472;SDS011;7322;50.872;4.386;2023-08-31T01:29:54;1.83;;;1.00;;
14472;SDS011;7322;50.872;4.386;2023-08-31T01:32:25;1.90;;;1.23;;
14472;SDS011;7322;50.872;4.386;2023-08-31T01:34:59;1.97;;;1.40;;
14472;SDS011;7322;50.872;4.386;2023-08-31T01:40:20;2.67;;;1.50;;
14472;SDS011;7322;50.872;4.386;2023-08-31T01:42:53;1.93;;;1.23;;
14472;SDS011;7322;50.872;4.386;2023-08-31T01:45:22;2.57;;;1.27;;
14472;SDS011;7322;50.872;4.386;2023-08-31T01:47:50;2.20;;;1.37;;
14472;SDS011;7322;50.872;4.386;2023-08-31T01:50:17;2.00;;;1.20;;
14472;SDS011;7322;50.872;4.386;2023-08-31T01:52:44;2.10;;;1.20;;
14472;SDS011;7322;50.872;4.386;2023-08-31T01:55:11;1.73;;;1.23;;
14472;SDS011;7322;50.872;4.386;2023-08-31T01:57:42;1.33;;;1.20;;
14472;SDS011;7322;50.872;4.386;2023-08-31T02:00:09;3.00;;;1.40;;
14472;SDS011;7322;50.872;4.386;2023-08-31T02:02:38;2.70;;;1.40;;
14472;SDS011;7322;50.872;4.386;2023-08-31T02:05:05;1.87;;;1.40;;
14472;SDS011;7322;50.872;4.386;2023-08-31T02:07:34;2.40;;;1.50;;
14472;SDS011;7322;50.872;4.386;2023-08-31T02:10:06;2.83;;;1.77;;
14472;SDS011;7322;50.872;4.386;2023-08-31T02:12:36;3.35;;;1.30;;
14472;SDS011;7322;50.872;4.386;2023-08-31T02:15:05;1.50;;;1.03;;
14472;SDS011;7322;50.872;4.386;2023-08-31T02:17:33;2.10;;;1.40;;
14472;SDS011;7322;50.872;4.386;2023-08-31T02:20:04;2.63;;;1.20;;
14472;SDS011;7322;50.872;4.386;2023-08-31T02:22:33;2.00;;;1.30;;
14472;SDS011;7322;50.872;4.386;2023-08-31T02:25:03;1.60;;;1.20;;
14472;SDS011;7322;50.872;4.386;2023-08-31T02:27:34;2.30;;;1.30;;
14472;SDS011;7322;50.872;4.386;2023-08-31T02:30:01;2.33;;;1.10;;
14472;SDS011;7322;50.872;4.386;2023-08-31T02:32:31;1.90;;;1.33;;
14472;SDS011;7322;50.872;4.386;2023-08-31T02:34:59;2.03;;;1.30;;
14472;SDS011;7322;50.872;4.386;2023-08-31T02:37:30;2.23;;;1.43;;
14472;SDS011;7322;50.872;4.386;2023-08-31T02:42:52;1.77;;;1.10;;
14472;SDS011;7322;50.872;4.386;2023-08-31T02:45:27;1.50;;;1.20;;
14472;SDS011;7322;50.872;4.386;2023-08-31T02:47:57;1.90;;;1.30;;
14472;SDS011;7322;50.872;4.386;2023-08-31T02:50:26;1.90;;;1.20;;
14472;SDS011;7322;50.872;4.386;2023-08-31T02:52:55;1.67;;;1.20;;
14472;SDS011;7322;50.872;4.386;2023-08-31T02:55:23;2.10;;;1.30;;
14472;SDS011;7322;50.872;4.386;2023-08-31T02:57:50;2.17;;;1.30;;
14472;SDS011;7322;50.872;4.386;2023-08-31T03:00:22;2.73;;;1.30;;
14472;SDS011;7322;50.872;4.386;2023-08-31T03:02:58;2.53;;;1.30;;
14472;SDS011;7322;50.872;4.386;2023-08-31T03:05:35;3.03;;;1.20;;
14472;SDS011;7322;50.872;4.386;2023-08-31T03:10:59;2.03;;;1.40;;
14472;SDS011;7322;50.872;4.386;2023-08-31T03:13:41;2.30;;;1.13;;
14472;SDS011;7322;50.872;4.386;2023-08-31T03:16:13;2.73;;;1.40;;
14472;SDS011;7322;50.872;4.386;2023-08-31T03:21:40;2.57;;;1.40;;
14472;SDS011;7322;50.872;4.386;2023-08-31T03:24:19;2.00;;;1.27;;
14472;SDS011;7322;50.872;4.386;2023-08-31T03:26:48;1.53;;;1.30;;
14472;SDS011;7322;50.872;4.386;2023-08-31T03:32:42;2.30;;;1.27;;
14472;SDS011;7322;50.872;4.386;2023-08-31T03:44:16;2.53;;;1.27;;
14472;SDS011;7322;50.872;4.386;2023-08-31T03:52:20;1.17;;;0.97;;
14472;SDS011;7322;50.872;4.386;2023-08-31T03:55:01;3.07;;;1.43;;
14472;SDS011;7322;50.872;4.386;2023-08-31T03:57:30;1.30;;;1.07;;
14472;SDS011;7322;50.872;4.386;2023-08-31T04:00:03;2.40;;;1.20;;
14472;SDS011;7322;50.872;4.386;2023-08-31T04:05:39;2.80;;;1.37;;
14472;SDS011;7322;50.872;4.386;2023-08-31T04:10:57;1.20;;;1.10;;
14472;SDS011;7322;50.872;4.386;2023-08-31T04:13:30;1.37;;;1.13;;
14472;SDS011;7322;50.872;4.386;2023-08-31T04:16:03;2.03;;;1.40;;
14472;SDS011;7322;50.872;4.386;2023-08-31T04:18:30;2.37;;;1.30;;
14472;SDS011;7322;50.872;4.386;2023-08-31T04:21:09;3.17;;;1.40;;
14472;SDS011;7322;50.872;4.386;2023-08-31T04:23:39;1.93;;;1.10;;
14472;SDS011;7322;50.872;4.386;2023-08-31T04:26:21;2.80;;;1.43;;
14472;SDS011;7322;50.872;4.386;2023-08-31T04:28:56;2.47;;;1.30;;
14472;SDS011;7322;50.872;4.386;2023-08-31T04:37:52;2.77;;;1.50;;
14472;SDS011;7322;50.872;4.386;2023-08-31T04:43:10;2.50;;;1.20;;
14472;SDS011;7322;50.872;4.386;2023-08-31T04:45:51;3.63;;;1.70;;
14472;SDS011;7322;50.872;4.386;2023-08-31T04:48:20;1.57;;;1.27;;
14472;SDS011;7322;50.872;4.386;2023-08-31T04:50:48;2.40;;;1.40;;
14472;SDS011;7322;50.872;4.386;2023-08-31T04:53:15;1.73;;;1.10;;
14472;SDS011;7322;50.872;4.386;2023-08-31T04:55:44;2.27;;;1.30;;
14472;SDS011;7322;50.872;4.386;2023-08-31T04:58:11;2.07;;;1.50;;
14472;SDS011;7322;50.872;4.386;2023-08-31T05:00:38;1.97;;;1.20;;
14472;SDS011;7322;50.872;4.386;2023-08-31T05:03:16;1.77;;;1.23;;
14472;SDS011;7322;50.872;4.386;2023-08-31T05:05:44;2.97;;;1.47;;
14472;SDS011;7322;50.872;4.386;2023-08-31T05:08:12;2.00;;;1.20;;
14472;SDS011;7322;50.872;4.386;2023-08-31T05:13:19;2.13;;;1.37;;
14472;SDS011;7322;50.872;4.386;2023-08-31T05:15:47;3.80;;;1.50;;
14472;SDS011;7322;50.872;4.386;2023-08-31T05:18:23;3.13;;;1.60;;
14472;SDS011;7322;50.872;4.386;2023-08-31T05:23:20;2.40;;;1.50;;
14472;SDS011;7322;50.872;4.386;2023-08-31T05:25:50;3.20;;;1.50;;
14472;SDS011;7322;50.872;4.386;2023-08-31T05:28:17;4.10;;;1.50;;
14472;SDS011;7322;50.872;4.386;2023-08-31T05:30:48;5.77;;;1.80;;
14472;SDS011;7322;50.872;4.386;2023-08-31T05:33:16;4.07;;;1.30;;
14472;SDS011;7322;50.872;4.386;2023-08-31T05:35:43;2.40;;;1.73;;
14472;SDS011;7322;50.872;4.386;2023-08-31T05:38:10;4.20;;;1.60;;
14472;SDS011;7322;50.872;4.386;2023-08-31T05:40:38;5.20;;;1.67;;
14472;SDS011;7322;50.872;4.386;2023-08-31T05:43:12;2.33;;;1.30;;
14472;SDS011;7322;50.872;4.386;2023-08-31T05:45:41;3.30;;;1.53;;
14472;SDS011;7322;50.872;4.386;2023-08-31T05:48:17;3.13;;;1.60;;
14472;SDS011;7322;50.872;4.386;2023-08-31T05:50:45;4.00;;;1.60;;
14472;SDS011;7322;50.872;4.386;2023-08-31T05:53:22;4.93;;;1.80;;
14472;SDS011;7322;50.872;4.386;2023-08-31T05:55:49;3.27;;;1.33;;
14472;SDS011;7322;50.872;4.386;2023-08-31T05:58:18;4.57;;;1.90;;
14472;SDS011;7322;50.872;4.386;2023-08-31T06:00:47;3.70;;;1.53;;
14472;SDS011;7322;50.872;4.386;2023-08-31T06:03:15;4.63;;;1.50;;
14472;SDS011;7322;50.872;4.386;2023-08-31T06:05:44;4.10;;;1.60;;
14472;SDS011;7322;50.872;4.386;2023-08-31T06:08:19;6.63;;;1.93;;
14472;SDS011;7322;50.872;4.386;2023-08-31T06:11:01;6.43;;;1.63;;
14472;SDS011;7322;50.872;4.386;2023-08-31T06:13:37;5.03;;;2.00;;
14472;SDS011;7322;50.872;4.386;2023-08-31T06:16:19;3.37;;;1.60;;
14472;SDS011;7322;50.872;4.386;2023-08-31T06:21:17;4.80;;;1.80;;
14472;SDS011;7322;50.872;4.386;2023-08-31T06:23:57;5.27;;;1.63;;
14472;SDS011;7322;50.872;4.386;2023-08-31T06:29:16;5.50;;;1.90;;
14472;SDS011;7322;50.872;4.386;2023-08-31T06:31:49;4.80;;;2.20;;
14472;SDS011;7322;50.872;4.386;2023-08-31T06:34:16;7.30;;;1.93;;
14472;SDS011;7322;50.872;4.386;2023-08-31T06:36:49;6.03;;;2.07;;
14472;SDS011;7322;50.872;4.386;2023-08-31T06:39:18;5.20;;;1.77;;
14472;SDS011;7322;50.872;4.386;2023-08-31T06:41:59;7.30;;;2.07;;
14472;SDS011;7322;50.872;4.386;2023-08-31T06:56:43;5.57;;;2.27;;
14472;SDS011;7322;50.872;4.386;2023-08-31T06:59:28;5.93;;;2.35;;
14472;SDS011;7322;50.872;4.386;2023-08-31T07:07:27;4.73;;;2.07;;
14472;SDS011;7322;50.872;4.386;2023-08-31T07:13:17;5.10;;;1.87;;
14472;SDS011;7322;50.872;4.386;2023-08-31T07:15:52;5.67;;;2.20;;
14472;SDS011;7322;50.872;4.386;2023-08-31T07:21:27;4.70;;;2.10;;
14472;SDS011;7322;50.872;4.386;2023-08-31T07:24:10;6.50;;;2.37;;
14472;SDS011;7322;50.872;4.386;2023-08-31T07:26:39;4.43;;;1.97;;
14472;SDS011;7322;50.872;4.386;2023-08-31T07:29:06;3.57;;;1.90;;
14472;SDS011;7322;50.872;4.386;2023-08-31T07:31:38;5.17;;;2.27;;
14472;SDS011;7322;50.872;4.386;2023-08-31T07:34:08;8.77;;;2.20;;
14472;SDS011;7322;50.872;4.386;2023-08-31T07:36:37;7.43;;;2.50;;
14472;SDS011;7322;50.872;4.386;2023-08-31T07:39:04;5.25;;;2.10;;
14472;SDS011;7322;50.872;4.386;2023-08-31T07:41:40;6.88;;;2.50;;
14472;SDS011;7322;50.872;4.386;2023-08-31T07:47:33;4.77;;;2.30;;
14472;SDS011;7322;50.872;4.386;2023-08-31T07:52:34;4.78;;;2.30;;
14472;SDS011;7322;50.872;4.386;2023-08-31T07:55:06;4.07;;;2.07;;
14472;SDS011;7322;50.872;4.386;2023-08-31T07:57:44;5.33;;;2.87;;
14472;SDS011;7322;50.872;4.386;2023-08-31T08:00:11;3.67;;;2.40;;
14472;SDS011;7322;50.872;4.386;2023-08-31T08:02:41;5.33;;;2.57;;
14472;SDS011;7322;50.872;4.386;2023-08-31T08:05:10;7.78;;;2.47;;
14472;SDS011;7322;50.872;4.386;2023-08-31T08:07:44;4.17;;;2.17;;
14472;SDS011;7322;50.872;4.386;2023-08-31T08:10:17;5.80;;;2.53;;
14472;SDS011;7322;50.872;4.386;2023-08-31T08:19:01;4.68;;;2.38;;
14472;SDS011;7322;50.872;4.386;2023-08-31T08:24:29;7.15;;;2.17;;
14472;SDS011;7322;50.872;4.386;2023-08-31T08:26:56;9.43;;;2.45;;
14472;SDS011;7322;50.872;4.386;2023-08-31T08:29:31;5.47;;;2.58;;
14472;SDS011;7322;50.872;4.386;2023-08-31T08:34:48;4.68;;;2.10;;
14472;SDS011;7322;50.872;4.386;2023-08-31T08:37:33;5.28;;;2.17;;
14472;SDS011;7322;50.872;4.386;2023-08-31T08:40:15;5.25;;;2.28;;
14472;SDS011;7322;50.872;4.386;2023-08-31T08:45:40;4.30;;;1.77;;
14472;SDS011;7322;50.872;4.386;2023-08-31T08:48:17;7.15;;;2.45;;
14472;SDS011;7322;50.872;4.386;2023-08-31T08:50:59;3.72;;;1.98;;
14472;SDS011;7322;50.872;4.386;2023-08-31T08:56:30;4.38;;;2.15;;
14472;SDS011;7322;50.872;4.386;2023-08-31T08:59:00;3.75;;;2.40;;
14472;SDS011;7322;50.872;4.386;2023-08-31T09:01:27;4.55;;;2.40;;
14472;SDS011;7322;50.872;4.386;2023-08-31T09:06:26;5.85;;;2.30;;
14472;SDS011;7322;50.872;4.386;2023-08-31T09:08:54;6.10;;;2.38;;
14472;SDS011;7322;50.872;4.386;2023-08-31T09:14:19;3.88;;;2.05;;
14472;SDS011;7322;50.872;4.386;2023-08-31T09:20:01;5.55;;;2.53;;
14472;SDS011;7322;50.872;4.386;2023-08-31T09:22:29;6.18;;;2.38;;
14472;SDS011;7322;50.872;4.386;2023-08-31T09:24:58;5.63;;;2.20;;
14472;SDS011;7322;50.872;4.386;2023-08-31T09:27:25;5.63;;;2.20;;
14472;SDS011;7322;50.872;4.386;2023-08-31T09:29:56;5.37;;;2.17;;
14472;SDS011;7322;50.872;4.386;2023-08-31T09:32:35;3.85;;;2.03;;
14472;SDS011;7322;50.872;4.386;2023-08-31T09:35:08;4.80;;;1.80;;
14472;SDS011;7322;50.872;4.386;2023-08-31T09:40:30;3.75;;;2.10;;
14472;SDS011;7322;50.872;4.386;2023-08-31T09:43:08;3.88;;;2.10;;
14472;SDS011;7322;50.872;4.386;2023-08-31T09:48:44;3.58;;;1.90;;
14472;SDS011;7322;50.872;4.386;2023-08-31T09:54:07;4.03;;;2.40;;
14472;SDS011;7322;50.872;4.386;2023-08-31T09:59:23;4.40;;;2.30;;
14472;SDS011;7322;50.872;4.386;2023-08-31T10:01:51;5.28;;;1.90;;
14472;SDS011;7322;50.872;4.386;2023-08-31T10:04:23;3.90;;;1.98;;
14472;SDS011;7322;50.872;4.386;2023-08-31T10:06:51;3.88;;;1.90;;
14472;SDS011;7322;50.872;4.386;2023-08-31T10:09:31;3.55;;;1.73;;
14472;SDS011;7322;50.872;4.386;2023-08-31T10:12:02;4.13;;;1.95;;
14472;SDS011;7322;50.872;4.386;2023-08-31T10:14:36;2.97;;;1.67;;
14472;SDS011;7322;50.872;4.386;2023-08-31T10:17:06;5.00;;;2.00;;
14472;SDS011;7322;50.872;4.386;2023-08-31T10:19:40;7.10;;;2.45;;
14472;SDS011;7322;50.872;4.386;2023-08-31T10:22:13;2.97;;;1.60;;
14472;SDS011;7322;50.872;4.386;2023-08-31T10:27:38;4.40;;;2.08;;
14472;SDS011;7322;50.872;4.386;2023-08-31T10:35:49;3.47;;;2.00;;
14472;SDS011;7322;50.872;4.386;2023-08-31T10:38:23;3.63;;;1.88;;
14472;SDS011;7322;50.872;4.386;2023-08-31T10:41:01;3.22;;;1.80;;
14472;SDS011;7322;50.872;4.386;2023-08-31T10:43:47;5.25;;;1.98;;
14472;SDS011;7322;50.872;4.386;2023-08-31T10:46:20;5.55;;;2.33;;
14472;SDS011;7322;50.872;4.386;2023-08-31T10:48:53;3.47;;;1.63;;
14472;SDS011;7322;50.872;4.386;2023-08-31T10:51:21;3.35;;;1.70;;
14472;SDS011;7322;50.872;4.386;2023-08-31T10:53:49;2.88;;;1.55;;
14472;SDS011;7322;50.872;4.386;2023-08-31T10:56:17;5.07;;;1.98;;
14472;SDS011;7322;50.872;4.386;2023-08-31T10:58:56;3.60;;;2.00;;
14472;SDS011;7322;50.872;4.386;2023-08-31T11:04:51;4.57;;;1.83;;
14472;SDS011;7322;50.872;4.386;2023-08-31T11:07:23;2.78;;;1.85;;
14472;SDS011;7322;50.872;4.386;2023-08-31T11:09:54;4.55;;;2.22;;
14472;SDS011;7322;50.872;4.386;2023-08-31T11:12:35;4.00;;;1.75;;
14472;SDS011;7322;50.872;4.386;2023-08-31T11:15:06;4.13;;;1.70;;
14472;SDS011;7322;50.872;4.386;2023-08-31T11:17:33;2.83;;;1.67;;
14472;SDS011;7322;50.872;4.386;2023-08-31T11:25:39;3.22;;;1.73;;
14472;SDS011;7322;50.872;4.386;2023-08-31T11:28:07;3.17;;;1.52;;
14472;SDS011;7322;50.872;4.386;2023-08-31T11:30:35;2.63;;;1.70;;
14472;SDS011;7322;50.872;4.386;2023-08-31T11:33:09;2.65;;;1.65;;
14472;SDS011;7322;50.872;4.386;2023-08-31T11:35:38;3.13;;;1.60;;
14472;SDS011;7322;50.872;4.386;2023-08-31T11:38:16;2.97;;;1.67;;
14472;SDS011;7322;50.872;4.386;2023-08-31T11:40:55;2.60;;;1.38;;
14472;SDS011;7322;50.872;4.386;2023-08-31T11:43:23;3.38;;;1.50;;
14472;SDS011;7322;50.872;4.386;2023-08-31T11:45:52;2.58;;;1.63;;
14472;SDS011;7322;50.872;4.386;2023-08-31T11:48:21;2.38;;;1.60;;
14472;SDS011;7322;50.872;4.386;2023-08-31T11:50:48;2.55;;;1.50;;
14472;SDS011;7322;50.872;4.386;2023-08-31T11:53:19;1.75;;;1.58;;
14472;SDS011;7322;50.872;4.386;2023-08-31T11:55:50;2.45;;;1.55;;
14472;SDS011;7322;50.872;4.386;2023-08-31T11:58:18;3.45;;;1.90;;
14472;SDS011;7322;50.872;4.386;2023-08-31T12:00:45;2.53;;;1.70;;
14472;SDS011;7322;50.872;4.386;2023-08-31T12:03:41;2.50;;;1.40;;
14472;SDS011;7322;50.872;4.386;2023-08-31T12:09:01;3.03;;;1.58;;
14472;SDS011;7322;50.872;4.386;2023-08-31T12:11:37;3.47;;;1.50;;
14472;SDS011;7322;50.872;4.386;2023-08-31T12:17:01;2.28;;;1.40;;
14472;SDS011;7322;50.872;4.386;2023-08-31T12:19:30;1.83;;;1.55;;
14472;SDS011;7322;50.872;4.386;2023-08-31T12:22:06;2.45;;;1.50;;
14472;SDS011;7322;50.872;4.386;2023-08-31T12:24:38;2.75;;;1.50;;
14472;SDS011;7322;50.872;4.386;2023-08-31T12:27:06;2.20;;;1.63;;
14472;SDS011;7322;50.872;4.386;2023-08-31T12:29:34;3.38;;;1.60;;
14472;SDS011;7322;50.872;4.386;2023-08-31T12:32:05;2.67;;;1.75;;
14472;SDS011;7322;50.872;4.386;2023-08-31T12:34:39;3.20;;;1.70;;
14472;SDS011;7322;50.872;4.386;2023-08-31T12:37:07;2.30;;;1.40;;
14472;SDS011;7322;50.872;4.386;2023-08-31T12:39:36;3.40;;;1.55;;
14472;SDS011;7322;50.872;4.386;2023-08-31T12:42:03;2.58;;;1.48;;
14472;SDS011;7322;50.872;4.386;2023-08-31T12:47:01;2.85;;;1.65;;
14472;SDS011;7322;50.872;4.386;2023-08-31T12:49:31;3.92;;;1.75;;
14472;SDS011;7322;50.872;4.386;2023-08-31T12:51:58;2.05;;;1.40;;
14472;SDS011;7322;50.872;4.386;2023-08-31T12:54:27;2.67;;;1.60;;
14472;SDS011;7322;50.872;4.386;2023-08-31T12:56:55;2.40;;;1.88;;
14472;SDS011;7322;50.872;4.386;2023-08-31T12:59:22;1.58;;;1.35;;
14472;SDS011;7322;50.872;4.386;2023-08-31T13:01:49;4.07;;;1.77;;
14472;SDS011;7322;50.872;4.386;2023-08-31T13:04:19;2.38;;;1.50;;
14472;SDS011;7322;50.872;4.386;2023-08-31T13:06:55;1.95;;;1.35;;
14472;SDS011;7322;50.872;4.386;2023-08-31T13:09:24;2.13;;;1.50;;
14472;SDS011;7322;50.872;4.386;2023-08-31T13:11:53;2.88;;;1.70;;
14472;SDS011;7322;50.872;4.386;2023-08-31T13:14:21;1.58;;;1.48;;
14472;SDS011;7322;50.872;4.386;2023-08-31T13:16:49;2.75;;;1.50;;
14472;SDS011;7322;50.872;4.386;2023-08-31T13:19:17;2.22;;;1.63;;
14472;SDS011;7322;50.872;4.386;2023-08-31T13:21:45;1.63;;;1.52;;
14472;SDS011;7322;50.872;4.386;2023-08-31T13:24:21;2.10;;;1.38;;
14472;SDS011;7322;50.872;4.386;2023-08-31T13:26:48;2.97;;;1.40;;
14472;SDS011;7322;50.872;4.386;2023-08-31T13:29:19;2.15;;;1.20;;
14472;SDS011;7322;50.872;4.386;2023-08-31T13:31:46;2.35;;;1.50;;
14472;SDS011;7322;50.872;4.386;2023-08-31T13:36:51;2.88;;;1.63;;
14472;SDS011;7322;50.872;4.386;2023-08-31T13:39:19;3.28;;;1.60;;
14472;SDS011;7322;50.872;4.386;2023-08-31T13:41:49;1.95;;;1.50;;
14472;SDS011;7322;50.872;4.386;2023-08-31T13:44:16;2.38;;;1.50;;
14472;SDS011;7322;50.872;4.386;2023-08-31T13:46:44;1.55;;;1.35;;
14472;SDS011;7322;50.872;4.386;2023-08-31T13:49:11;1.75;;;1.58;;
14472;SDS011;7322;50.872;4.386;2023-08-31T13:51:38;1.92;;;1.40;;
14472;SDS011;7322;50.872;4.386;2023-08-31T13:54:05;2.75;;;1.40;;
14472;SDS011;7322;50.872;4.386;2023-08-31T13:56:34;2.15;;;1.33;;
14472;SDS011;7322;50.872;4.386;2023-08-31T13:59:12;2.95;;;1.60;;
14472;SDS011;7322;50.872;4.386;2023-08-31T14:01:49;2.17;;;1.40;;
14472;SDS011;7322;50.872;4.386;2023-08-31T14:04:18;2.35;;;1.40;;
14472;SDS011;7322;50.872;4.386;2023-08-31T14:06:47;2.10;;;1.33;;
14472;SDS011;7322;50.872;4.386;2023-08-31T14:09:14;1.70;;;1.40;;
14472;SDS011;7322;50.872;4.386;2023-08-31T14:11:55;1.75;;;1.50;;
14472;SDS011;7322;50.872;4.386;2023-08-31T14:14:24;2.65;;;1.30;;
14472;SDS011;7322;50.872;4.386;2023-08-31T14:16:52;2.40;;;1.60;;
14472;SDS011;7322;50.872;4.386;2023-08-31T14:19:20;1.80;;;1.40;;
14472;SDS011;7322;50.872;4.386;2023-08-31T14:21:48;2.55;;;1.20;;
14472;SDS011;7322;50.872;4.386;2023-08-31T14:24:18;2.90;;;1.35;;
14472;SDS011;7322;50.872;4.386;2023-08-31T14:26:50;2.17;;;1.40;;
14472;SDS011;7322;50.872;4.386;2023-08-31T14:29:20;3.97;;;1.40;;
14472;SDS011;7322;50.872;4.386;2023-08-31T14:31:47;2.95;;;1.20;;
14472;SDS011;7322;50.872;4.386;2023-08-31T14:34:16;2.45;;;1.40;;
14472;SDS011;7322;50.872;4.386;2023-08-31T14:36:43;1.70;;;1.48;;
14472;SDS011;7322;50.872;4.386;2023-08-31T14:39:12;1.58;;;1.30;;
14472;SDS011;7322;50.872;4.386;2023-08-31T14:41:40;2.38;;;1.42;;
14472;SDS011;7322;50.872;4.386;2023-08-31T14:44:14;3.72;;;1.38;;
14472;SDS011;7322;50.872;4.386;2023-08-31T14:46:44;3.33;;;1.40;;
14472;SDS011;7322;50.872;4.386;2023-08-31T14:49:11;2.70;;;1.38;;
14472;SDS011;7322;50.872;4.386;2023-08-31T14:51:40;4.15;;;1.60;;
14472;SDS011;7322;50.872;4.386;2023-08-31T14:54:19;3.00;;;1.65;;
14472;SDS011;7322;50.872;4.386;2023-08-31T14:56:47;3.92;;;1.80;;
14472;SDS011;7322;50.872;4.386;2023-08-31T14:59:15;6.13;;;1.75;;
14472;SDS011;7322;50.872;4.386;2023-08-31T15:01:46;4.65;;;2.03;;
14472;SDS011;7322;50.872;4.386;2023-08-31T15:04:13;5.00;;;2.28;;
14472;SDS011;7322;50.872;4.386;2023-08-31T15:06:41;4.63;;;2.38;;
14472;SDS011;7322;50.872;4.386;2023-08-31T15:09:10;5.38;;;2.90;;
14472;SDS011;7322;50.872;4.386;2023-08-31T15:11:39;5.20;;;2.50;;
14472;SDS011;7322;50.872;4.386;2023-08-31T15:14:12;5.40;;;2.90;;
14472;SDS011;7322;50.872;4.386;2023-08-31T15:16:51;5.78;;;2.67;;
14472;SDS011;7322;50.872;4.386;2023-08-31T15:19:21;6.30;;;2.95;;
14472;SDS011;7322;50.872;4.386;2023-08-31T15:21:49;5.95;;;2.97;;
14472;SDS011;7322;50.872;4.386;2023-08-31T15:24:19;4.72;;;2.45;;
14472;SDS011;7322;50.872;4.386;2023-08-31T15:26:47;5.55;;;3.08;;
14472;SDS011;7322;50.872;4.386;2023-08-31T15:29:14;7.80;;;2.60;;
14472;SDS011;7322;50.872;4.386;2023-08-31T15:31:41;6.57;;;2.90;;
14472;SDS011;7322;50.872;4.386;2023-08-31T15:34:19;6.65;;;3.03;;
14472;SDS011;7322;50.872;4.386;2023-08-31T15:45:06;6.32;;;3.13;;
14472;SDS011;7322;50.872;4.386;2023-08-31T15:47:50;6.78;;;2.95;;
14472;SDS011;7322;50.872;4.386;2023-08-31T15:50:19;6.60;;;3.22;;
14472;SDS011;7322;50.872;4.386;2023-08-31T15:52:47;5.07;;;2.95;;
14472;SDS011;7322;50.872;4.386;2023-08-31T15:55:21;7.90;;;3.05;;
14472;SDS011;7322;50.872;4.386;2023-08-31T15:57:48;8.18;;;3.35;;
14472;SDS011;7322;50.872;4.386;2023-08-31T16:00:15;7.85;;;3.60;;
14472;SDS011;7322;50.872;4.386;2023-08-31T16:06:06;6.15;;;3.67;;
14472;SDS011;7322;50.872;4.386;2023-08-31T16:08:42;5.35;;;3.42;;
14472;SDS011;7322;50.872;4.386;2023-08-31T16:14:02;4.70;;;3.40;;
14472;SDS011;7322;50.872;4.386;2023-08-31T16:16:36;6.00;;;3.58;;
14472;SDS011;7322;50.872;4.386;2023-08-31T16:19:18;6.47;;;3.30;;
14472;SDS011;7322;50.872;4.386;2023-08-31T16:21:53;5.53;;;3.42;;
14472;SDS011;7322;50.872;4.386;2023-08-31T16:24:30;5.65;;;3.22;;
14472;SDS011;7322;50.872;4.386;2023-08-31T16:27:03;4.90;;;3.33;;
14472;SDS011;7322;50.872;4.386;2023-08-31T16:29:44;7.18;;;3.50;;
14472;SDS011;7322;50.872;4.386;2023-08-31T16:32:20;4.40;;;3.08;;
14472;SDS011;7322;50.872;4.386;2023-08-31T16:35:13;8.18;;;3.60;;
14472;SDS011;7322;50.872;4.386;2023-08-31T16:54:29;6.22;;;3.13;;
14472;SDS011;7322;50.872;4.386;2023-08-31T16:57:07;7.20;;;3.10;;
14472;SDS011;7322;50.872;4.386;2023-08-31T16:59:34;7.35;;;3.05;;
14472;SDS011;7322;50.872;4.386;2023-08-31T17:02:07;5.63;;;2.75;;
14472;SDS011;7322;50.872;4.386;2023-08-31T17:07:20;7.57;;;2.67;;
14472;SDS011;7322;50.872;4.386;2023-08-31T17:09:50;6.90;;;2.85;;
14472;SDS011;7322;50.872;4.386;2023-08-31T17:18:06;6.07;;;3.03;;
14472;SDS011;7322;50.872;4.386;2023-08-31T17:20:42;4.82;;;2.72;;
14472;SDS011;7322;50.872;4.386;2023-08-31T17:23:18;5.70;;;3.13;;
14472;SDS011;7322;50.872;4.386;2023-08-31T17:25:47;7.03;;;2.80;;
14472;SDS011;7322;50.872;4.386;2023-08-31T17:28:29;4.65;;;2.65;;
14472;SDS011;7322;50.872;4.386;2023-08-31T17:31:07;7.60;;;3.05;;
14472;SDS011;7322;50.872;4.386;2023-08-31T17:33:46;5.60;;;2.70;;
14472;SDS011;7322;50.872;4.386;2023-08-31T17:38:57;7.68;;;3.08;;
14472;SDS011;7322;50.872;4.386;2023-08-31T17:44:23;8.48;;;2.97;;
14472;SDS011;7322;50.872;4.386;2023-08-31T17:50:06;5.63;;;3.00;;
14472;SDS011;7322;50.872;4.386;2023-08-31T17:55:34;6.43;;;2.90;;
14472;SDS011;7322;50.872;4.386;2023-08-31T18:01:11;6.97;;;2.80;;
14472;SDS011;7322;50.872;4.386;2023-08-31T18:06:49;6.85;;;2.97;;
14472;SDS011;7322;50.872;4.386;2023-08-31T18:09:35;5.18;;;3.05;;
14472;SDS011;7322;50.872;4.386;2023-08-31T18:15:30;7.38;;;2.90;;
14472;SDS011;7322;50.872;4.386;2023-08-31T18:18:04;9.13;;;3.40;;
14472;SDS011;7322;50.872;4.386;2023-08-31T18:34:29;6.47;;;2.72;;
14472;SDS011;7322;50.872;4.386;2023-08-31T18:39:33;7.03;;;3.13;;
14472;SDS011;7322;50.872;4.386;2023-08-31T18:42:02;6.28;;;2.92;;
14472;SDS011;7322;50.872;4.386;2023-08-31T18:44:34;6.03;;;3.58;;
14472;SDS011;7322;50.872;4.386;2023-08-31T18:47:16;5.75;;;3.10;;
14472;SDS011;7322;50.872;4.386;2023-08-31T18:49:56;7.28;;;3.28;;
14472;SDS011;7322;50.872;4.386;2023-08-31T18:57:50;4.80;;;2.83;;
14472;SDS011;7322;50.872;4.386;2023-08-31T19:00:34;5.28;;;3.28;;
14472;SDS011;7322;50.872;4.386;2023-08-31T19:03:10;6.93;;;3.10;;
14472;SDS011;7322;50.872;4.386;2023-08-31T19:09:06;7.13;;;3.13;;
14472;SDS011;7322;50.872;4.386;2023-08-31T19:14:28;6.55;;;3.42;;
14472;SDS011;7322;50.872;4.386;2023-08-31T19:17:05;7.38;;;3.00;;
14472;SDS011;7322;50.872;4.386;2023-08-31T19:19:33;5.15;;;2.92;;
14472;SDS011;7322;50.872;4.386;2023-08-31T19:22:01;5.55;;;2.92;;
14472;SDS011;7322;50.872;4.386;2023-08-31T19:24:28;5.20;;;2.78;;
14472;SDS011;7322;50.872;4.386;2023-08-31T19:26:57;5.60;;;3.05;;
14472;SDS011;7322;50.872;4.386;2023-08-31T19:29:25;5.13;;;2.58;;
14472;SDS011;7322;50.872;4.386;2023-08-31T19:31:53;6.10;;;2.75;;
14472;SDS011;7322;50.872;4.386;2023-08-31T19:34:21;7.30;;;2.72;;
14472;SDS011;7322;50.872;4.386;2023-08-31T19:36:48;5.32;;;3.00;;
14472;SDS011;7322;50.872;4.386;2023-08-31T19:39:18;4.63;;;2.63;;
14472;SDS011;7322;50.872;4.386;2023-08-31T19:41:48;4.85;;;2.92;;
14472;SDS011;7322;50.872;4.386;2023-08-31T19:44:18;5.10;;;3.05;;